Time;durP1;ratioP1;P1;durP2;ratioP2;P2;SDS_P1;SDS_P2;PMS_P1;PMS_P2;Temp;Humidity;BMP_temperature;BMP_pressure;BME280_temperature;BME280_humidity;BME280_pressure;Samples;Min_cycle;Max_cycle;Signal;HPM_P1;HPM_P2
2022/10/20 00:01:48;;;;;;;15.57;10.50;;;;;;;16.20;67.45;97452.47;4887082;28;20124;-74
2022/10/20 00:04:13;;;;;;;16.15;11.38;;;;;;;16.16;67.59;97456.69;4886029;28;20116;-74
2022/10/20 00:06:39;;;;;;;15.70;10.20;;;;;;;16.23;67.15;97457.97;4886214;28;20283;-74
2022/10/20 00:09:04;;;;;;;16.42;11.48;;;;;;;16.17;67.28;97453.81;4901270;28;20257;-74
2022/10/20 00:11:31;;;;;;;17.25;10.88;;;;;;;16.15;67.22;97460.41;4888051;28;20202;-74
2022/10/20 00:13:57;;;;;;;18.58;11.77;;;;;;;16.11;67.54;97449.66;4885465;28;20253;-74
2022/10/20 00:16:24;;;;;;;15.07;10.50;;;;;;;16.11;67.36;97444.41;4914686;28;20202;-74
2022/10/20 00:18:50;;;;;;;15.88;10.75;;;;;;;16.15;66.98;97434.91;4884591;28;20289;-74
2022/10/20 00:21:18;;;;;;;16.55;10.98;;;;;;;16.07;66.92;97422.34;4885619;28;20704;-74
2022/10/20 00:23:43;;;;;;;15.32;10.40;;;;;;;15.91;67.71;97419.06;4884802;28;20294;-74
2022/10/20 00:26:14;;;;;;;17.92;10.50;;;;;;;15.90;67.68;97413.03;4872055;28;20389;-74
2022/10/20 00:28:40;;;;;;;14.40;10.15;;;;;;;15.85;68.14;97414.88;4881690;28;20778;-73
2022/10/20 00:31:06;;;;;;;16.02;11.05;;;;;;;15.81;67.76;97414.63;4885617;28;20258;-74
2022/10/20 00:33:32;;;;;;;14.65;11.02;;;;;;;15.82;67.90;97408.34;4885369;28;20245;-74
2022/10/20 00:35:58;;;;;;;16.05;11.07;;;;;;;15.76;68.16;97400.75;4869508;28;20112;-74
2022/10/20 00:38:24;;;;;;;16.95;11.00;;;;;;;15.81;67.96;97403.34;4885077;28;20287;-74
2022/10/20 00:40:49;;;;;;;15.00;10.57;;;;;;;15.79;68.32;97403.63;4885497;28;20217;-74
2022/10/20 00:43:16;;;;;;;15.45;11.18;;;;;;;15.78;68.24;97398.66;4885160;28;20214;-73
2022/10/20 00:45:42;;;;;;;17.60;10.82;;;;;;;15.73;68.07;97394.97;4865270;28;20182;-74
2022/10/20 00:48:17;;;;;;;19.25;12.57;;;;;;;15.77;68.44;97391.84;4884708;28;20648;-74
2022/10/20 00:50:47;;;;;;;18.30;11.43;;;;;;;15.73;68.31;97386.31;4869493;28;20206;-74
2022/10/20 00:53:12;;;;;;;17.70;11.70;;;;;;;15.63;68.66;97381.13;4861508;28;20193;-74
2022/10/20 00:55:41;;;;;;;18.15;12.68;;;;;;;15.77;68.57;97386.59;4885458;28;20222;-74
2022/10/20 00:58:06;;;;;;;17.95;11.55;;;;;;;15.72;68.34;97382.13;4866910;28;20639;-74
2022/10/20 01:00:31;;;;;;;17.58;11.25;;;;;;;15.71;68.16;97380.53;4886365;28;20184;-74
2022/10/20 01:02:58;;;;;;;17.60;11.27;;;;;;;15.76;68.00;97372.66;4882549;28;20230;-74
2022/10/20 01:05:24;;;;;;;18.08;11.90;;;;;;;15.69;68.42;97374.78;4872837;28;20099;-74
2022/10/20 01:07:49;;;;;;;17.65;12.15;;;;;;;15.63;68.46;97373.25;4868524;28;20217;-74
2022/10/20 01:10:16;;;;;;;17.27;12.10;;;;;;;15.58;68.55;97384.56;4901182;28;20186;-74
2022/10/20 01:12:57;;;;;;;20.02;12.35;;;;;;;15.77;68.33;97381.34;4884803;28;20276;-74
2022/10/20 01:15:31;;;;;;;17.50;11.68;;;;;;;15.74;68.36;97372.91;4885231;28;20604;-74
2022/10/20 01:18:02;;;;;;;15.90;11.00;;;;;;;15.72;68.25;97376.88;4868598;28;21052;-74
2022/10/20 01:21:19;;;;;;;17.42;11.07;;;;;;;15.75;68.15;97381.63;4885062;28;20376;-74
2022/10/20 01:23:45;;;;;;;17.05;11.88;;;;;;;15.59;68.33;97370.38;4860680;28;20246;-74
2022/10/20 01:26:25;;;;;;;15.35;10.73;;;;;;;15.67;67.99;97369.03;4887195;28;20174;-74
2022/10/20 01:29:15;;;;;;;16.23;11.15;;;;;;;15.66;67.83;97370.06;4869072;28;20190;-74
2022/10/20 01:32:42;;;;;;;16.23;10.38;;;;;;;15.79;67.60;97379.22;4883488;28;20718;-74
2022/10/20 01:35:37;;;;;;;11.68;8.68;;;;;;;15.79;67.40;97379.22;4856485;28;20358;-74
2022/10/20 01:38:10;;;;;;;18.10;11.02;;;;;;;15.64;68.26;97367.72;4904391;28;20194;-74
2022/10/20 01:40:42;;;;;;;17.80;11.43;;;;;;;15.57;68.55;97355.97;4872968;28;20585;-74
2022/10/20 01:43:10;;;;;;;16.17;11.15;;;;;;;15.42;68.97;97341.88;4857125;28;20446;-74
2022/10/20 01:45:38;;;;;;;16.40;10.60;;;;;;;15.40;69.02;97340.56;4870691;28;20659;-74
2022/10/20 01:48:05;;;;;;;17.67;11.65;;;;;;;15.45;68.98;97333.44;4869368;29;20790;-74
2022/10/20 01:50:33;;;;;;;14.23;10.70;;;;;;;15.44;68.89;97329.28;4888974;28;20198;-74
2022/10/20 01:52:59;;;;;;;16.00;10.63;;;;;;;15.43;68.72;97340.81;4888326;28;20233;-74
2022/10/20 01:55:25;;;;;;;17.98;11.35;;;;;;;15.41;68.40;97342.16;4872565;28;20690;-74
2022/10/20 01:58:10;;;;;;;14.70;10.57;;;;;;;15.43;68.73;97329.53;4856400;28;20295;-74
2022/10/20 02:00:36;;;;;;;;;;;;;;;15.57;68.15;97327.09;4888409;28;20198;-74
2022/10/20 02:03:01;;;;;;;18.83;11.30;;;;;;;15.35;68.87;97331.69;4871824;28;20520;-73
2022/10/20 02:05:38;;;;;;;18.42;10.52;;;;;;;15.44;68.78;97329.28;4890292;28;20549;-74
2022/10/20 02:08:33;;;;;;;15.93;10.73;;;;;;;15.64;68.15;97330.19;4883832;28;20167;-74
2022/10/20 02:11:01;;;;;;;15.13;10.65;;;;;;;15.49;67.94;97331.06;4888168;28;20216;-74
2022/10/20 02:13:28;;;;;;;16.88;10.40;;;;;;;15.46;68.42;97331.63;4887720;28;20329;-74
2022/10/20 02:15:56;;;;;;;19.75;10.23;;;;;;;15.38;68.71;97332.97;4887662;28;20227;-73
2022/10/20 02:18:26;;;;;;;18.25;11.40;;;;;;;15.34;68.98;97332.72;4887028;28;20248;-74
2022/10/20 02:20:54;;;;;;;16.50;10.63;;;;;;;15.45;68.56;97327.44;4887794;28;20298;-73
2022/10/20 02:23:19;;;;;;;19.25;12.02;;;;;;;15.32;68.41;97329.59;4871574;28;20717;-74
2022/10/20 02:25:47;;;;;;;14.02;10.00;;;;;;;15.34;68.58;97321.47;4887829;28;20265;-74
2022/10/20 02:28:14;;;;;;;14.75;10.13;;;;;;;15.32;68.85;97323.59;4887330;28;20229;-74
2022/10/20 02:30:40;;;;;;;18.67;11.77;;;;;;;15.32;68.76;97320.97;4871467;28;20250;-74
2022/10/20 02:33:06;;;;;;;17.83;10.73;;;;;;;15.33;68.63;97328.53;4887913;28;20104;-74
2022/10/20 02:35:32;;;;;;;17.20;11.20;;;;;;;15.37;68.56;97320.94;4871978;28;20636;-74
2022/10/20 02:37:58;;;;;;;15.32;10.77;;;;;;;15.38;69.08;97311.97;4887111;28;20237;-74
2022/10/20 02:40:23;;;;;;;16.50;11.73;;;;;;;15.40;69.11;97309.88;4886889;28;20267;-74
2022/10/20 02:42:49;;;;;;;17.73;11.45;;;;;;;15.47;69.12;97310.38;4887401;28;20375;-74
2022/10/20 02:45:14;;;;;;;18.60;11.63;;;;;;;15.50;68.69;97304.56;4885135;28;20194;-75
2022/10/20 02:47:40;;;;;;;17.52;10.68;;;;;;;15.59;68.51;97312.63;4886638;28;20202;-74
2022/10/20 02:50:07;;;;;;;18.55;11.65;;;;;;;15.65;68.77;97305.53;4887350;28;20274;-74
2022/10/20 02:52:32;;;;;;;17.77;12.32;;;;;;;15.62;68.74;97306.84;4887301;28;20191;-74
2022/10/20 02:54:58;;;;;;;18.27;11.85;;;;;;;15.56;68.95;97307.94;4876404;28;20257;-74
2022/10/20 02:57:23;;;;;;;19.60;12.23;;;;;;;15.64;69.05;97309.19;4871154;28;20293;-74
2022/10/20 02:59:49;;;;;;;18.52;11.80;;;;;;;15.69;68.80;97306.53;4887530;28;20275;-74
2022/10/20 03:02:14;;;;;;;17.80;11.90;;;;;;;15.71;68.73;97304.41;4887282;28;20206;-74
2022/10/20 03:04:39;;;;;;;17.75;12.05;;;;;;;15.79;68.36;97306.47;4870894;28;20211;-74
2022/10/20 03:07:05;;;;;;;15.57;11.10;;;;;;;15.85;68.00;97305.41;4886680;28;20221;-74
2022/10/20 03:09:30;;;;;;;16.77;11.15;;;;;;;15.81;67.92;97298.34;4886882;28;20106;-74
2022/10/20 03:11:55;;;;;;;16.25;11.30;;;;;;;15.79;68.42;97301.25;4889054;28;20209;-74
2022/10/20 03:14:21;;;;;;;16.23;10.98;;;;;;;15.84;67.93;97293.31;4870969;28;20676;-74
2022/10/20 03:16:46;;;;;;;13.80;10.00;;;;;;;15.79;68.00;97290.72;4886459;28;20615;-74
2022/10/20 03:19:11;;;;;;;18.40;12.00;;;;;;;15.81;68.04;97293.09;4886260;28;20387;-74
2022/10/20 03:21:37;;;;;;;16.80;11.55;;;;;;;16.04;67.39;97283.69;4886627;28;20174;-74
2022/10/20 03:24:03;;;;;;;14.93;10.93;;;;;;;16.21;66.35;97283.28;4886935;28;20215;-74
2022/10/20 03:26:28;;;;;;;18.20;10.85;;;;;;;16.14;66.79;97291.47;4888770;28;20700;-74
2022/10/20 03:28:54;;;;;;;15.07;10.63;;;;;;;16.14;66.55;97286.22;4886132;28;20194;-74
2022/10/20 03:31:19;;;;;;;15.30;11.15;;;;;;;16.08;66.70;97293.38;4886346;28;20493;-74
2022/10/20 03:33:44;;;;;;;15.23;10.77;;;;;;;16.08;66.77;97289.97;4886948;28;20283;-74
2022/10/20 03:36:10;;;;;;;15.73;10.30;;;;;;;15.82;67.67;97279.69;4900263;28;20363;-74
2022/10/20 03:38:35;;;;;;;16.40;10.57;;;;;;;15.77;67.79;97271.84;4889042;28;20403;-74
2022/10/20 03:41:01;;;;;;;19.00;11.45;;;;;;;15.76;67.89;97272.91;4855570;28;20289;-74
2022/10/20 03:43:26;;;;;;;16.00;10.85;;;;;;;15.99;67.48;97273.22;4871166;28;20351;-74
2022/10/20 03:46:04;;;;;;;15.75;10.18;;;;;;;16.15;66.65;97276.53;4867134;28;20102;-74
2022/10/20 03:48:30;;;;;;;18.73;11.25;;;;;;;16.04;66.57;97275.81;4886641;28;20262;-74
2022/10/20 03:50:55;;;;;;;15.00;9.95;;;;;;;15.97;66.59;97265.66;4888994;28;20361;-75
2022/10/20 03:53:20;;;;;;;14.80;10.48;;;;;;;15.77;67.46;97260.56;4887181;28;20265;-74
2022/10/20 03:55:46;;;;;;;19.45;11.40;;;;;;;15.66;68.04;97258.00;4888955;28;20543;-74
2022/10/20 03:58:11;;;;;;;17.55;10.45;;;;;;;15.84;67.31;97247.91;4870750;28;20281;-74
2022/10/20 04:00:36;;;;;;;16.55;10.18;;;;;;;15.90;66.93;97250.22;4885469;28;20273;-74
2022/10/20 04:03:02;;;;;;;16.05;10.50;;;;;;;15.94;66.71;97247.81;4902559;28;20288;-74
2022/10/20 04:05:27;;;;;;;14.45;9.80;;;;;;;15.85;66.74;97244.22;4855019;28;20189;-74
2022/10/20 04:07:53;;;;;;;16.63;9.27;;;;;;;15.85;66.61;97242.38;4886070;28;20283;-74
2022/10/20 04:10:18;;;;;;;12.18;9.27;;;;;;;15.86;66.52;97248.41;4854138;28;20210;-74
2022/10/20 04:12:43;;;;;;;15.57;9.85;;;;;;;15.84;66.88;97242.66;4886326;28;20174;-74
2022/10/20 04:15:10;;;;;;;15.20;10.43;;;;;;;15.81;66.94;97233.47;4886638;28;20190;-73
2022/10/20 04:17:36;;;;;;;17.45;9.80;;;;;;;15.78;66.66;97231.44;4885884;28;20255;-74
2022/10/20 04:20:02;;;;;;;14.90;9.93;;;;;;;15.81;67.06;97232.69;4886562;28;20401;-74
2022/10/20 04:22:28;;;;;;;19.42;10.32;;;;;;;15.73;66.88;97219.09;4870206;28;20717;-74
2022/10/20 04:24:53;;;;;;;14.38;10.15;;;;;;;15.68;67.15;97210.50;4886068;28;20262;-75
2022/10/20 04:27:19;;;;;;;16.73;10.32;;;;;;;15.65;67.09;97201.31;4885949;28;20360;-74
2022/10/20 04:29:45;;;;;;;16.63;10.27;;;;;;;15.61;67.21;97202.13;4886086;28;20678;-74
2022/10/20 04:32:11;;;;;;;13.95;9.48;;;;;;;15.66;67.15;97213.38;4870045;28;20344;-74
2022/10/20 04:34:36;;;;;;;17.85;10.98;;;;;;;15.59;67.23;97209.50;4870139;28;20267;-74
2022/10/20 04:37:01;;;;;;;16.63;10.10;;;;;;;15.61;67.33;97202.13;4870437;28;20279;-74
2022/10/20 04:39:26;;;;;;;13.13;9.77;;;;;;;15.69;66.81;97206.78;4869759;28;20107;-74
2022/10/20 04:41:52;;;;;;;15.57;9.63;;;;;;;15.80;66.37;97210.94;4870108;28;20380;-74
2022/10/20 04:44:17;;;;;;;15.30;10.05;;;;;;;15.72;66.59;97211.50;4885653;28;20241;-74
2022/10/20 04:46:43;;;;;;;14.65;9.73;;;;;;;15.73;66.67;97213.06;4882114;28;20310;-75
2022/10/20 04:49:08;;;;;;;16.92;10.43;;;;;;;15.75;66.45;97210.97;4884930;28;20369;-74
2022/10/20 04:51:33;;;;;;;14.55;9.50;;;;;;;15.78;66.40;97214.88;4888219;28;20193;-74
2022/10/20 04:53:59;;;;;;;15.88;9.98;;;;;;;15.77;66.07;97215.94;4869810;28;20179;-74
2022/10/20 04:56:24;;;;;;;13.55;9.10;;;;;;;15.78;66.39;97210.44;4885937;28;20333;-74
2022/10/20 04:58:52;;;;;;;12.00;8.95;;;;;;;15.81;66.20;97212.47;4885110;28;20190;-74
2022/10/20 05:01:18;;;;;;;14.80;9.98;;;;;;;15.77;66.19;97213.31;4884187;28;20230;-74
2022/10/20 05:03:43;;;;;;;13.95;10.07;;;;;;;15.74;66.03;97214.63;4885565;28;20175;-74
2022/10/20 05:06:16;;;;;;;15.10;9.88;;;;;;;15.81;66.04;97206.44;4888952;28;20209;-74
2022/10/20 05:08:43;;;;;;;14.82;10.70;;;;;;;15.64;66.55;97204.97;4888428;28;20203;-74
2022/10/20 05:11:09;;;;;;;17.25;10.88;;;;;;;15.66;66.56;97204.72;4888962;28;20204;-74
2022/10/20 05:13:34;;;;;;;14.93;10.15;;;;;;;15.62;66.47;97198.47;4872971;28;20284;-74
2022/10/20 05:15:59;;;;;;;15.60;10.38;;;;;;;15.55;66.25;97186.44;4888557;28;20292;-74
2022/10/20 05:18:25;;;;;;;15.50;9.85;;;;;;;15.56;66.63;97189.84;4888759;28;20297;-74
2022/10/20 05:20:51;;;;;;;17.60;10.70;;;;;;;15.48;66.58;97185.97;4890481;28;20206;-74
2022/10/20 05:23:16;;;;;;;15.13;10.18;;;;;;;15.46;67.02;97190.72;4888189;28;20313;-74
2022/10/20 05:25:41;;;;;;;14.48;9.60;;;;;;;15.49;67.04;97189.38;4872425;28;20251;-74
2022/10/20 05:28:07;;;;;;;13.38;9.40;;;;;;;15.52;66.66;97186.19;4887187;28;20368;-74
2022/10/20 05:30:33;;;;;;;14.82;10.93;;;;;;;15.47;66.53;97181.00;4872640;28;20300;-74
2022/10/20 05:32:59;;;;;;;16.27;12.55;;;;;;;15.49;66.70;97192.78;4872375;28;20171;-74
2022/10/20 05:35:24;;;;;;;20.55;14.85;;;;;;;15.54;66.57;97192.75;4888633;28;20144;-74
2022/10/20 05:37:49;;;;;;;15.77;14.07;;;;;;;15.54;66.32;97199.81;4856368;28;20596;-73
2022/10/20 05:40:15;;;;;;;15.05;11.57;;;;;;;15.52;66.22;97194.06;4872687;28;20309;-74
2022/10/20 05:42:40;;;;;;;18.20;11.52;;;;;;;15.41;66.52;97188.13;4872715;28;20565;-74
2022/10/20 05:45:06;;;;;;;18.27;9.50;;;;;;;15.36;66.84;97198.66;4870511;28;20280;-74
2022/10/20 05:47:32;;;;;;;15.75;8.02;;;;;;;15.48;66.41;97206.19;4888741;28;20370;-74
2022/10/20 05:49:58;;;;;;;13.60;9.32;;;;;;;15.57;65.82;97214.25;4889080;28;20172;-74
2022/10/20 05:52:23;;;;;;;14.40;10.32;;;;;;;15.50;65.54;97225.06;4889291;28;20201;-74
2022/10/20 05:54:49;;;;;;;14.02;9.98;;;;;;;15.40;65.82;97220.66;4889155;28;20635;-74
2022/10/20 05:57:14;;;;;;;14.35;9.52;;;;;;;15.24;66.46;97203.47;4873348;28;20413;-74
2022/10/20 05:59:39;;;;;;;15.20;9.52;;;;;;;15.36;66.42;97211.78;4888900;28;20281;-74
2022/10/20 06:02:05;;;;;;;13.75;9.05;;;;;;;15.49;65.95;97233.97;4888559;28;20172;-74
2022/10/20 06:04:30;;;;;;;15.40;8.85;;;;;;;15.40;66.01;97235.63;4886118;28;20213;-74
2022/10/20 06:06:57;;;;;;;12.40;8.68;;;;;;;15.36;66.18;97240.63;4888251;28;20232;-74
2022/10/20 06:09:23;;;;;;;15.23;10.20;;;;;;;15.33;66.24;97241.97;4888287;28;20206;-74
2022/10/20 06:11:49;;;;;;;14.90;10.38;;;;;;;15.26;66.63;97231.00;4888357;28;20191;-74
2022/10/20 06:14:16;;;;;;;14.43;9.13;;;;;;;15.24;66.71;97232.34;4887753;28;20627;-74
2022/10/20 06:16:42;;;;;;;13.50;9.07;;;;;;;15.25;66.76;97223.41;4890664;28;20621;-74
2022/10/20 06:19:08;;;;;;;11.25;7.82;;;;;;;15.28;66.42;97225.47;4872082;28;20206;-74
2022/10/20 06:21:35;;;;;;;15.38;9.35;;;;;;;15.16;66.35;97223.19;4872218;28;20174;-74
2022/10/20 06:24:03;;;;;;;13.52;8.48;;;;;;;15.14;66.67;97212.19;4872073;28;20264;-74
2022/10/20 06:26:31;;;;;;;16.98;8.93;;;;;;;15.08;66.91;97197.53;4888876;28;20194;-74
2022/10/20 06:28:57;;;;;;;14.45;8.63;;;;;;;14.99;67.19;97194.72;4888204;28;20557;-74
2022/10/20 06:31:25;;;;;;;15.48;9.10;;;;;;;15.03;67.31;97187.09;4888631;28;20242;-74
2022/10/20 06:33:50;;;;;;;16.17;9.70;;;;;;;15.04;67.41;97194.69;4888440;28;20274;-74
2022/10/20 06:36:17;;;;;;;13.05;8.68;;;;;;;15.13;67.07;97205.38;4888625;28;20250;-74
2022/10/20 06:38:43;;;;;;;18.23;9.52;;;;;;;15.20;67.35;97197.19;4887773;28;20240;-74
2022/10/20 06:41:11;;;;;;;16.30;9.85;;;;;;;15.27;67.24;97189.81;4890094;28;20281;-74
2022/10/20 06:43:37;;;;;;;15.45;10.07;;;;;;;15.28;67.43;97197.41;4888271;28;20277;-74
2022/10/20 06:46:05;;;;;;;14.95;9.50;;;;;;;15.36;67.35;97196.81;4885477;28;20290;-74
2022/10/20 06:48:30;;;;;;;16.38;10.25;;;;;;;15.36;67.15;97206.53;4887662;28;20282;-74
2022/10/20 06:51:00;;;;;;;14.32;10.30;;;;;;;15.46;66.72;97210.94;4856357;28;20330;-74
2022/10/20 06:53:27;;;;;;;15.02;10.63;;;;;;;15.47;66.86;97212.47;4888148;28;20202;-73
2022/10/20 06:55:56;;;;;;;18.13;12.18;;;;;;;15.50;66.89;97217.97;4888183;28;20277;-74
2022/10/20 06:58:22;;;;;;;14.30;8.98;;;;;;;15.54;66.45;97221.63;4871693;28;20656;-74
2022/10/20 07:01:06;;;;;;;17.33;11.13;;;;;;;15.64;66.70;97207.59;4871896;28;20298;-73
2022/10/20 07:03:33;;;;;;;13.73;9.27;;;;;;;15.59;66.77;97209.50;4856259;28;20236;-74
2022/10/20 07:05:58;;;;;;;15.77;10.80;;;;;;;15.60;66.69;97203.19;4888124;28;20198;-74
2022/10/20 07:08:27;;;;;;;17.38;10.40;;;;;;;15.60;67.15;97197.94;4889628;28;20504;-74
2022/10/20 07:11:04;;;;;;;17.83;10.48;;;;;;;15.72;66.79;97199.13;4887923;28;20276;-74
2022/10/20 07:13:30;;;;;;;15.13;9.25;;;;;;;15.68;66.75;97205.25;4879031;28;20273;-75
2022/10/20 07:15:57;;;;;;;14.13;8.95;;;;;;;15.68;66.66;97194.75;4889777;28;20241;-74
2022/10/20 07:18:23;;;;;;;13.90;9.65;;;;;;;15.62;67.15;97182.72;4887374;28;20167;-75
2022/10/20 07:20:48;;;;;;;17.77;10.88;;;;;;;15.72;66.70;97182.63;4887506;28;20644;-74
2022/10/20 07:23:14;;;;;;;15.77;10.02;;;;;;;15.73;66.63;97181.56;4871646;28;20164;-75
2022/10/20 07:25:39;;;;;;;13.55;9.57;;;;;;;15.65;66.87;97175.06;4887311;28;20303;-74
2022/10/20 07:28:04;;;;;;;17.48;9.25;;;;;;;15.64;67.06;97183.97;4852159;29;20259;-74
2022/10/20 07:30:30;;;;;;;14.15;8.45;;;;;;;15.79;66.54;97195.44;4886589;28;20613;-74
2022/10/20 07:32:55;;;;;;;11.75;8.25;;;;;;;15.92;65.99;97218.44;4887180;28;20222;-74
2022/10/20 07:35:20;;;;;;;15.55;8.68;;;;;;;15.94;66.37;97212.88;4887449;28;20217;-74
2022/10/20 07:37:46;;;;;;;15.60;10.07;;;;;;;15.94;66.72;97208.44;4887003;28;20243;-75
2022/10/20 07:40:11;;;;;;;14.68;9.98;;;;;;;15.93;66.78;97208.69;4889434;28;20199;-74
2022/10/20 07:42:36;;;;;;;11.65;8.60;;;;;;;16.15;66.08;97230.00;4887309;28;20299;-74
2022/10/20 07:45:03;;;;;;;17.50;9.35;;;;;;;16.25;66.15;97234.38;4886658;28;20699;-74
2022/10/20 07:47:28;;;;;;;13.18;8.45;;;;;;;16.27;65.75;97230.41;4870809;28;20171;-74
2022/10/20 07:49:53;;;;;;;12.75;8.77;;;;;;;16.33;65.42;97230.34;4870932;28;20223;-75
2022/10/20 07:52:19;;;;;;;17.10;9.40;;;;;;;16.32;65.46;97226.16;4889264;28;20245;-75
2022/10/20 07:54:44;;;;;;;12.82;8.82;;;;;;;16.35;65.68;97228.22;4887074;28;20189;-74
2022/10/20 07:57:09;;;;;;;13.88;9.70;;;;;;;16.40;65.59;97228.16;4886461;28;20289;-74
2022/10/20 07:59:35;;;;;;;11.93;8.07;;;;;;;16.55;65.41;97235.09;4887034;28;20664;-74
2022/10/20 08:02:00;;;;;;;12.10;8.63;;;;;;;16.55;65.80;97233.22;4886840;28;20269;-75
2022/10/20 08:04:26;;;;;;;13.68;8.00;;;;;;;16.63;65.65;97237.88;4886939;28;20210;-75
2022/10/20 08:06:51;;;;;;;10.52;7.47;;;;;;;16.71;65.43;97233.03;4870333;28;20305;-75
2022/10/20 08:09:17;;;;;;;11.82;8.05;;;;;;;16.75;65.34;97236.69;4887065;28;20206;-74
2022/10/20 08:11:42;;;;;;;10.00;8.02;;;;;;;16.80;65.18;97234.00;4886525;28;20179;-75
2022/10/20 08:14:07;;;;;;;14.60;8.23;;;;;;;16.87;64.77;97234.47;4888915;28;20284;-74
2022/10/20 08:16:33;;;;;;;14.25;9.05;;;;;;;16.80;64.71;97240.03;4888943;28;20073;-74
2022/10/20 08:18:59;;;;;;;13.82;9.35;;;;;;;16.81;64.50;97243.44;4870378;28;20239;-74
2022/10/20 08:21:24;;;;;;;13.60;8.90;;;;;;;16.86;64.77;97235.50;4886553;28;20180;-74
2022/10/20 08:23:50;;;;;;;11.75;8.45;;;;;;;16.91;64.59;97239.94;4888541;28;20645;-75
2022/10/20 08:26:18;;;;;;;14.85;8.88;;;;;;;16.98;64.47;97243.78;4886403;28;20163;-75
2022/10/20 08:28:44;;;;;;;12.82;9.10;;;;;;;16.96;64.62;97248.53;4886260;28;20797;-74
2022/10/20 08:31:09;;;;;;;13.60;8.75;;;;;;;16.94;64.87;97242.78;4886253;28;20274;-74
2022/10/20 08:33:35;;;;;;;13.82;8.65;;;;;;;17.06;64.87;97246.84;4888521;28;20365;-74
2022/10/20 08:36:11;;;;;;;12.00;8.82;;;;;;;17.27;64.60;97232.31;4886526;28;20100;-74
2022/10/20 08:38:37;;;;;;;12.77;8.98;;;;;;;17.20;64.67;97227.44;4885518;28;20172;-74
2022/10/20 08:41:05;;;;;;;11.85;8.75;;;;;;;17.32;64.83;97226.19;4886288;28;20254;-75
2022/10/20 08:43:31;;;;;;;15.25;8.68;;;;;;;17.37;64.40;97232.16;4870473;28;20167;-74
2022/10/20 08:45:56;;;;;;;14.55;9.20;;;;;;;17.36;64.35;97225.34;4883181;28;20234;-74
2022/10/20 08:48:27;;;;;;;16.05;8.55;;;;;;;17.54;63.94;97236.13;4885373;28;20214;-74
2022/10/20 08:50:52;;;;;;;11.23;8.20;;;;;;;17.56;63.69;97236.63;4870365;28;20190;-74
2022/10/20 08:53:20;;;;;;;8.32;6.97;;;;;;;17.67;63.64;97240.66;4886321;28;20111;-74
2022/10/20 08:55:45;;;;;;;10.65;7.15;;;;;;;17.68;63.72;97242.22;4886441;28;20190;-74
2022/10/20 08:58:29;;;;;;;12.15;8.15;;;;;;;17.91;63.22;97232.66;4885843;28;20300;-74
2022/10/20 09:00:57;;;;;;;7.20;6.07;;;;;;;17.85;62.79;97239.03;4870251;28;20261;-74
2022/10/20 09:03:30;;;;;;;9.75;6.70;;;;;;;17.92;63.13;97231.59;4886133;28;20210;-74
2022/10/20 09:06:00;;;;;;;13.25;8.07;;;;;;;17.82;63.67;97228.28;4870629;28;20621;-74
2022/10/20 09:08:28;;;;;;;11.82;7.78;;;;;;;17.84;63.69;97224.31;4869887;28;20380;-73
2022/10/20 09:10:54;;;;;;;12.88;8.70;;;;;;;17.85;63.98;97219.81;4885689;28;20179;-75
2022/10/20 09:13:23;;;;;;;13.13;8.93;;;;;;;17.96;63.64;97216.75;4886175;28;20380;-74
2022/10/20 09:15:58;;;;;;;12.30;8.20;;;;;;;18.11;63.54;97218.34;4885827;28;20285;-75
2022/10/20 09:18:23;;;;;;;10.70;7.97;;;;;;;18.16;63.70;97220.06;4869882;28;20198;-74
2022/10/20 09:21:16;;;;;;;10.07;7.60;;;;;;;18.53;63.49;97208.53;4886202;28;20160;-75
2022/10/20 09:23:49;;;;;;;11.35;7.57;;;;;;;18.70;63.70;97223.00;4883499;28;20222;-75
2022/10/20 09:26:19;;;;;;;9.75;7.65;;;;;;;18.95;62.91;97228.81;4869866;28;20314;-74
2022/10/20 09:28:49;;;;;;;8.05;7.05;;;;;;;19.09;61.91;97226.94;4885950;28;20210;-75
2022/10/20 09:31:31;;;;;;;6.95;5.50;;;;;;;19.23;61.45;97230.31;4886022;28;20202;-74
2022/10/20 09:33:56;;;;;;;6.97;5.45;;;;;;;19.23;61.64;97225.03;4885947;28;20315;-74
2022/10/20 09:36:23;;;;;;;6.95;5.07;;;;;;;19.41;61.00;97225.16;4869948;28;20738;-74
2022/10/20 09:38:50;;;;;;;6.03;5.03;;;;;;;19.59;60.74;97220.78;4885872;28;20252;-75
2022/10/20 09:41:16;;;;;;;7.03;5.13;;;;;;;19.68;60.10;97226.09;4885889;28;20782;-74
2022/10/20 09:44:15;;;;;;;7.07;5.43;;;;;;;19.98;59.96;97222.72;4854227;28;20167;-74
2022/10/20 09:46:47;;;;;;;6.47;4.60;;;;;;;19.97;60.58;97226.44;4848260;28;20718;-74
2022/10/20 09:49:34;;;;;;;11.65;5.07;;;;;;;20.10;59.81;97202.84;4885192;28;20258;-75
2022/10/20 09:52:02;;;;;;;6.88;5.18;;;;;;;20.09;58.72;97206.59;4870582;29;20161;-74
2022/10/20 09:54:28;;;;;;;6.75;4.88;;;;;;;20.07;59.14;97201.59;4883468;28;20278;-75
2022/10/20 09:57:03;;;;;;;8.40;4.47;;;;;;;20.28;59.41;97199.19;4891238;28;20187;-74
2022/10/20 09:59:32;;;;;;;;;;;;;;;20.47;58.88;97195.50;4875438;28;20218;-74
2022/10/20 10:02:00;;;;;;;6.57;4.45;;;;;;;20.16;58.79;97183.91;4859974;28;20167;-74
2022/10/20 10:04:37;;;;;;;8.75;4.85;;;;;;;20.31;58.89;97171.38;4889111;28;20376;-74
2022/10/20 10:07:04;;;;;;;6.45;4.40;;;;;;;20.20;59.23;97171.66;4885976;28;20281;-74
2022/10/20 10:09:36;;;;;;;7.63;5.07;;;;;;;20.34;59.41;97171.53;4891745;28;20190;-74
2022/10/20 10:12:11;;;;;;;7.32;4.30;;;;;;;20.55;58.76;97178.88;4905132;28;20204;-74
2022/10/20 10:14:50;;;;;;;8.15;4.68;;;;;;;20.36;59.74;97179.94;4891114;28;20194;-74
2022/10/20 10:17:35;;;;;;;8.48;4.80;;;;;;;20.66;57.88;97182.03;4872419;28;20281;-74
2022/10/20 10:20:01;;;;;;;;;;;;;;;20.70;57.77;97190.88;4889282;28;20195;-74
2022/10/20 10:22:26;;;;;;;8.88;4.22;;;;;;;20.55;58.68;97192.09;4856794;28;20097;-74
2022/10/20 10:24:54;;;;;;;6.80;4.60;;;;;;;20.58;59.24;97189.63;4888403;28;20206;-74
2022/10/20 10:27:19;;;;;;;8.55;4.88;;;;;;;20.57;59.41;97197.84;4888486;28;20210;-74
2022/10/20 10:29:44;;;;;;;5.85;4.45;;;;;;;20.68;58.99;97198.38;4890853;28;20176;-74
2022/10/20 10:32:27;;;;;;;8.73;4.90;;;;;;;20.80;58.35;97195.13;4888568;28;20296;-74
2022/10/20 10:35:08;;;;;;;7.47;4.72;;;;;;;20.72;58.42;97204.63;4888620;28;20163;-74
2022/10/20 10:37:36;;;;;;;8.60;4.85;;;;;;;20.63;58.36;97199.31;4888405;28;20220;-74
2022/10/20 10:40:12;;;;;;;7.05;4.32;;;;;;;20.73;58.27;97192.91;4872817;28;20204;-74
2022/10/20 10:42:47;;;;;;;7.22;4.57;;;;;;;20.67;58.82;97194.94;4888438;28;20268;-74
2022/10/20 10:45:45;;;;;;;7.38;4.65;;;;;;;20.65;58.98;97191.84;4888588;28;20629;-74
2022/10/20 10:48:29;;;;;;;6.47;4.15;;;;;;;20.73;59.09;97183.13;4887533;28;20209;-74
2022/10/20 10:51:00;;;;;;;8.02;5.10;;;;;;;20.69;58.75;97186.72;4888275;28;20156;-74
2022/10/20 10:54:00;;;;;;;8.10;4.65;;;;;;;20.71;58.11;97192.47;4872169;28;20189;-75
2022/10/20 10:56:42;;;;;;;6.88;4.57;;;;;;;20.82;58.47;97196.38;4888253;28;20831;-74
2022/10/20 10:59:28;;;;;;;10.05;5.20;;;;;;;20.83;57.96;97186.56;4888220;28;20768;-74
2022/10/20 11:02:44;;;;;;;7.07;4.80;;;;;;;20.81;59.28;97188.75;4871066;28;20415;-75
2022/10/20 11:05:12;;;;;;;4.95;4.45;;;;;;;20.68;59.25;97183.28;4866765;28;20352;-74
2022/10/20 11:07:53;;;;;;;8.00;4.70;;;;;;;20.66;58.74;97185.44;4887581;28;20129;-74
2022/10/20 11:10:24;;;;;;;11.18;4.80;;;;;;;20.69;58.12;97182.19;4889957;28;20115;-74
2022/10/20 11:13:04;;;;;;;9.65;5.50;;;;;;;20.63;58.41;97178.16;4887910;28;20305;-74
2022/10/20 11:15:54;;;;;;;7.82;4.88;;;;;;;20.80;57.71;97184.53;4887727;28;20130;-74
2022/10/20 11:18:59;;;;;;;7.40;5.03;;;;;;;20.78;58.21;97192.78;4866120;28;20166;-75
2022/10/20 11:21:46;;;;;;;7.68;5.80;;;;;;;20.72;58.15;97186.88;4889503;28;20301;-74
2022/10/20 11:24:42;;;;;;;8.73;5.05;;;;;;;20.84;57.71;97186.25;4889632;28;20281;-74
2022/10/20 11:27:29;;;;;;;11.98;4.80;;;;;;;20.76;58.70;97177.19;4887248;28;20642;-75
2022/10/20 11:30:15;;;;;;;6.05;4.45;;;;;;;20.73;58.72;97161.97;4887671;28;20256;-74
2022/10/20 11:32:58;;;;;;;7.57;4.45;;;;;;;20.73;58.82;97161.97;4887260;28;20676;-74
2022/10/20 11:35:32;;;;;;;6.55;4.85;;;;;;;20.95;57.87;97170.84;4887410;28;20219;-74